Millertown, Canada
Current Conditions -  °F | °C
As of 1:00 PM on Thursday 23 Oct 2014 (Local Time) from CYDF Reporting Station
Broken Clouds Broken Clouds  
Wind Chill: 37°   Ceiling: 25000
Heat Index: 37°   Visibility: 10mi
Dew Point: 36°   Wind: 0mph
Humidity: 93%   Direction: NA
Pressure: 30.35"   Gusts: NA
Location:  48.82°N, 56.53°W
Report Text: CYDF 231500Z 00000KT 10SM SCT003 BKN250 03/02 A3035 RMK SF3CI2 SLP278
Loading
Personal Weather Stations






























Interactive Weather Map
Tropical Storm Tracking
New forecast layout! Learn more

10-Day Weather Forecast

Advertisements
Track Severe Weather on mobile